Meteo Giornale » Osservazioni meteo Olanda » Woensdrecht

ore: 14:55 - Osservazioni Meteo Woensdrecht
Lat. 51° 27' N Lon. 4° 20' E Alt. 20 metri s.l.m.

coperto

21 °C

Coperto

Temp. 24 Ore

16 °C

22 °C

Ovest/Nord-Ovest

18.5 Km/h

Dew point 12 °C

Umidità 56 %

Visibilità  10 Km

Il sole sorge alle ore 06:55

Il sole tramonta alle ore 20:29

Data e Ora Cielo e Fenomeni T °C DP °C Um. % Pres. hPa Vis. km Vento km/h
Oggi h: 14:55 coperto Coperto 21 12 56 1020 10 O/NO 18.5
Oggi h: 14:25 molto_nuvoloso Molto Nuvoloso 21 12 56 1020 10 O 16.7
Oggi h: 13:55 molto_nuvoloso Molto Nuvoloso 21 12 56 1020 10 O/NO 18.5
Oggi h: 13:25 sereno Sereno 21 12 56 1020 10 O 18.5
Oggi h: 12:55 nuvoloso Nuvoloso 21 13 60 1020 10 O/NO 16.7
Oggi h: 12:25 molto_nuvoloso Molto Nuvoloso 20 12 59 1020 10 O/NO 16.7
Oggi h: 11:55 nuvoloso Nuvoloso 21 13 60 1020 10 O/NO 16.7
Oggi h: 11:25 molto_nuvoloso Molto Nuvoloso 19 13 68 1020 10 O 16.7
Oggi h: 10:55 sereno Sereno 19 13 68 1020 10 O 16.7
Oggi h: 10:25 nuvoloso Nuvoloso 19 14 72 1019 10 O 16.7
Oggi h: 09:55 coperto Coperto 19 15 77 1019 10 O 14.8
Oggi h: 09:25 coperto Coperto 17 16 93 1019 10 N 5.5
Oggi h: 08:55 coperto Coperto 17 16 93 1019 10 S/SO 7.4
Oggi h: 08:25 foschia Foschia 17 16 93 1018 8 SO 9.3
Oggi h: 07:55 foschia Foschia 16 16 100 1018 7 N 5.5
Oggi h: 07:25 foschia Foschia 16 16 100 1018 8 N 3.7
Oggi h: 06:55 foschia Foschia 16 15 93 1018 8 N 5.5
Oggi h: 06:25 coperto_pioggia Pioviggine 16 16 100 1017 5 N 5.5
Oggi h: 05:55 foschia Foschia 16 15 93 1017 9 O/SO 7.4
Oggi h: 05:25 molto_nuvoloso Molto Nuvoloso 16 15 93 1017 10 SO 9.3
Oggi h: 04:55 molto_nuvoloso Molto Nuvoloso 16 16 100 1017 10 SO 7.4
Oggi h: 04:25 coperto Coperto 16 15 93 1017 10 SO 11.1
Oggi h: 03:55 molto_nuvoloso Molto Nuvoloso 16 15 93 1017 10 S/SO 7.4
Oggi h: 03:25 coperto Coperto 16 15 93 1017 10 SO 7.4
Oggi h: 02:55 coperto Coperto 16 15 93 1017 10 S/SO 9.3
Oggi h: 02:25 molto_nuvoloso Molto Nuvoloso 17 15 88 1017 10 SO 9.3
Oggi h: 01:25 coperto Coperto 17 15 88 1017 10 SO 14.8
Oggi h: 00:55 coperto Coperto 18 15 82 1016 10 SO 16.7
Oggi h: 00:25 coperto Coperto 17 15 88 1016 10 SO 14.8
Ieri h: 23:55 coperto Coperto 18 15 82 1016 10 SO 16.7
Ieri h: 23:25 coperto Coperto 18 15 82 1016 10 SO 14.8
Ieri h: 22:55 molto_nuvoloso Molto Nuvoloso 18 15 82 1016 10 SO 14.8
Ieri h: 22:25 nuvoloso Nuvoloso 19 15 77 1016 10 SO 13
Ieri h: 21:55 molto_nuvoloso Molto Nuvoloso 19 15 77 1016 10 SO 14.8
Ieri h: 21:25 molto_nuvoloso Molto Nuvoloso 19 14 72 1015 10 O/SO 14.8
Ieri h: 20:55 molto_nuvoloso Molto Nuvoloso 19 14 72 1015 10 O/SO 18.5
Ieri h: 20:25 sereno Sereno 19 14 72 1014 10 O/SO 20.3
Ieri h: 19:55 sereno Sereno 20 14 68 1014 10 O/SO 24
Ieri h: 19:25 sereno Sereno 20 13 64 1014 10 O 25.9
Ieri h: 18:55 poco_nuvoloso Poco Nuvoloso 20 13 64 1013 10 O 22.2
Ieri h: 18:25 poco_nuvoloso Poco Nuvoloso 21 12 56 1013 10 O 25.9
Ieri h: 17:55 molto_nuvoloso Molto Nuvoloso 22 12 53 1013 10 O 29.6
Ieri h: 17:25 sereno Sereno 21 12 56 1013 10 O 29.6
Ieri h: 16:55 molto_nuvoloso Molto Nuvoloso 20 13 64 1012 10 O 29.6
Ieri h: 16:25 poco_nuvoloso Poco Nuvoloso 21 13 60 1012 10 O 33.3
Ieri h: 15:55 nuvoloso Nuvoloso 21 12 56 1011 10 O 33.3